Time;durP1;ratioP1;P1;durP2;ratioP2;P2;SDS_P1;SDS_P2;PMS_P1;PMS_P2;Temp;Humidity;BMP_temperature;BMP_pressure;BME280_temperature;BME280_humidity;BME280_pressure;Samples;Min_cycle;Max_cycle;Signal;HPM_P1;HPM_P2
2021/07/03 00:00:08;;;;;;;8.63;5.65;;;;;;;16.27;73.08;98294.31;5082658;28;20467;-75
2021/07/03 00:02:33;;;;;;;7.85;5.43;;;;;;;16.26;72.87;98301.00;5106645;28;20428;-75
2021/07/03 00:04:59;;;;;;;7.65;4.85;;;;;;;16.22;72.93;98304.44;5110137;28;20103;-71
2021/07/03 00:07:24;;;;;;;8.75;6.03;;;;;;;16.21;73.46;98299.25;5098004;28;20032;-72
2021/07/03 00:09:49;;;;;;;9.45;5.72;;;;;;;16.16;73.66;98293.91;5100666;28;20067;-72
2021/07/03 00:12:15;;;;;;;10.38;6.60;;;;;;;16.13;73.25;98292.63;5102178;28;20084;-72
2021/07/03 00:14:40;;;;;;;9.38;6.00;;;;;;;16.11;73.60;98288.56;5103891;28;20012;-72
2021/07/03 00:17:06;;;;;;;10.73;5.95;;;;;;;16.06;72.98;98287.66;5103834;28;20106;-73
2021/07/03 00:19:31;;;;;;;10.32;6.28;;;;;;;16.01;73.46;98292.56;5085137;28;20034;-72
2021/07/03 00:21:57;;;;;;;8.10;5.93;;;;;;;15.98;73.45;98296.81;5100385;28;20027;-73
2021/07/03 00:24:22;;;;;;;11.95;6.65;;;;;;;15.95;74.37;98296.66;5102953;28;20036;-75
2021/07/03 00:26:47;;;;;;;9.52;5.95;;;;;;;15.91;74.33;98291.00;5102731;28;20020;-77
2021/07/03 00:29:13;;;;;;;9.10;6.43;;;;;;;15.86;74.13;98296.69;5095282;28;20035;-79
2021/07/03 00:31:40;;;;;;;13.82;6.72;;;;;;;15.86;74.08;98294.78;5080055;28;20102;-79
2021/07/03 00:34:05;;;;;;;9.30;6.15;;;;;;;15.83;73.70;98300.97;5079230;28;20652;-79
2021/07/03 00:36:31;;;;;;;9.07;6.50;;;;;;;15.77;73.50;98294.78;5085274;28;20080;-78
2021/07/03 00:38:56;;;;;;;9.30;6.30;;;;;;;15.72;73.57;98292.22;5085894;28;20024;-79
2021/07/03 00:41:22;;;;;;;9.35;6.03;;;;;;;15.68;73.73;98288.53;5086021;28;20085;-79
2021/07/03 00:43:47;;;;;;;10.57;6.88;;;;;;;15.63;73.87;98294.25;5086690;28;20028;-79
2021/07/03 00:46:13;;;;;;;13.50;7.07;;;;;;;15.58;74.47;98294.44;5086315;28;20252;-81
2021/07/03 00:48:38;;;;;;;12.98;7.32;;;;;;;15.55;74.26;98292.34;5087621;28;20032;-80
2021/07/03 00:51:04;;;;;;;10.10;6.57;;;;;;;15.49;74.65;98297.22;5078296;28;20020;-82
2021/07/03 00:53:29;;;;;;;11.38;6.35;;;;;;;15.46;74.35;98297.91;5078467;28;20119;-78
2021/07/03 00:55:55;;;;;;;10.50;6.68;;;;;;;15.45;74.52;98301.81;5079129;28;20038;-79
2021/07/03 00:58:21;;;;;;;14.35;7.80;;;;;;;15.41;75.08;98301.66;5099413;28;20104;-78
2021/07/03 01:00:46;;;;;;;13.52;7.68;;;;;;;15.41;74.64;98300.88;5100334;28;20019;-77
2021/07/03 01:03:12;;;;;;;11.07;7.45;;;;;;;15.41;75.88;98300.88;5103216;28;20078;-79
2021/07/03 01:05:37;;;;;;;11.90;7.82;;;;;;;15.35;75.12;98304.94;5101780;28;20031;-77
2021/07/03 01:08:03;;;;;;;14.30;7.75;;;;;;;15.34;74.93;98298.59;5099899;28;20036;-78
2021/07/03 01:10:30;;;;;;;12.70;7.90;;;;;;;15.34;74.87;98304.13;5102413;28;20054;-80
2021/07/03 01:12:57;;;;;;;14.27;8.32;;;;;;;15.32;75.78;98298.94;5102762;28;20034;-78
2021/07/03 01:15:23;;;;;;;12.68;7.68;;;;;;;15.30;75.60;98301.22;5085774;28;20471;-77
2021/07/03 01:17:49;;;;;;;13.85;9.02;;;;;;;15.29;75.49;98299.59;5083449;28;20028;-79
2021/07/03 01:20:16;;;;;;;13.43;8.35;;;;;;;15.27;75.74;98296.38;5087333;28;20028;-79
2021/07/03 01:22:44;;;;;;;14.65;8.98;;;;;;;15.22;75.96;98299.31;5105783;28;20068;-79
2021/07/03 01:25:11;;;;;;;16.98;9.38;;;;;;;15.22;77.12;98295.75;5107107;28;20490;-79
2021/07/03 01:27:37;;;;;;;13.73;8.40;;;;;;;15.15;75.90;98299.81;5113946;28;20111;-79
2021/07/03 01:30:04;;;;;;;15.95;8.25;;;;;;;15.13;76.04;98293.81;5112955;28;20098;-79
2021/07/03 01:32:30;;;;;;;14.23;7.82;;;;;;;15.10;75.82;98300.00;5112148;28;20040;-79
2021/07/03 01:34:55;;;;;;;14.40;7.38;;;;;;;15.06;75.86;98299.03;5103397;28;20046;-79
2021/07/03 01:37:21;;;;;;;17.92;9.80;;;;;;;15.03;76.36;98302.47;5088990;28;20087;-79
2021/07/03 01:39:48;;;;;;;14.27;8.38;;;;;;;15.02;76.17;98300.84;5103400;28;20024;-80
2021/07/03 01:42:13;;;;;;;13.02;8.07;;;;;;;14.98;76.54;98299.88;5102288;28;20054;-79
2021/07/03 01:44:40;;;;;;;18.38;9.52;;;;;;;14.96;77.74;98302.97;5105702;28;20058;-78
2021/07/03 01:47:05;;;;;;;16.80;9.40;;;;;;;14.95;77.17;98308.81;5101771;28;20063;-79
2021/07/03 01:49:39;;;;;;;17.80;9.73;;;;;;;14.95;78.05;98308.81;5104525;28;20058;-79
2021/07/03 01:52:04;;;;;;;16.30;8.85;;;;;;;14.94;76.95;98315.47;5102718;28;20024;-79
2021/07/03 01:54:30;;;;;;;15.43;8.13;;;;;;;14.93;77.17;98322.13;5104693;28;20030;-79
2021/07/03 01:56:59;;;;;;;16.58;9.10;;;;;;;14.89;77.52;98319.22;5101763;28;20592;-79
2021/07/03 01:59:29;;;;;;;19.53;9.83;;;;;;;14.93;78.07;98316.63;5099808;28;20032;-79
2021/07/03 02:01:56;;;;;;;20.33;11.15;;;;;;;14.94;77.41;98319.06;5103549;28;20219;-79
2021/07/03 02:04:22;;;;;;;17.65;9.18;;;;;;;14.97;77.57;98321.16;5081855;28;20046;-80
2021/07/03 02:06:48;;;;;;;13.30;8.90;;;;;;;14.98;77.37;98319.19;5101322;28;20042;-79
2021/07/03 02:09:15;;;;;;;14.48;8.43;;;;;;;15.00;77.39;98319.69;5102328;28;20507;-79
2021/07/03 02:11:41;;;;;;;19.73;10.35;;;;;;;15.05;77.88;98319.50;5097867;28;20091;-79
2021/07/03 02:14:07;;;;;;;18.27;11.05;;;;;;;15.03;78.10;98328.16;5084730;28;20057;-78
2021/07/03 02:16:32;;;;;;;18.20;10.48;;;;;;;15.06;79.07;98320.34;5083364;28;20036;-78
2021/07/03 02:18:58;;;;;;;20.40;9.57;;;;;;;15.02;78.12;98326.53;5100185;28;20080;-78
2021/07/03 02:21:23;;;;;;;18.13;10.20;;;;;;;14.99;78.19;98321.66;5101339;28;20111;-79
2021/07/03 02:23:48;;;;;;;19.58;10.88;;;;;;;15.01;77.46;98324.06;5101345;28;20033;-79
2021/07/03 02:26:14;;;;;;;16.33;8.60;;;;;;;15.01;77.59;98326.84;5102492;28;20027;-78
2021/07/03 02:28:39;;;;;;;17.83;9.35;;;;;;;14.99;77.59;98321.66;5101936;28;20024;-79
2021/07/03 02:31:05;;;;;;;18.80;9.93;;;;;;;14.96;78.24;98322.31;5083449;28;20027;-79
2021/07/03 02:33:31;;;;;;;19.13;11.07;;;;;;;14.98;78.42;98319.19;5100772;28;20028;-79
2021/07/03 02:35:56;;;;;;;16.80;10.68;;;;;;;14.95;78.73;98323.44;5102444;28;20422;-79
2021/07/03 02:38:22;;;;;;;15.63;9.52;;;;;;;14.93;78.09;98322.97;5106987;28;20035;-79
2021/07/03 02:40:47;;;;;;;18.27;11.43;;;;;;;14.92;78.15;98326.03;5111766;28;20103;-79
2021/07/03 02:43:13;;;;;;;18.48;10.05;;;;;;;14.95;78.67;98317.09;5111366;28;20024;-81
2021/07/03 02:45:38;;;;;;;19.95;9.85;;;;;;;14.96;79.55;98325.06;5112089;28;20035;-80
2021/07/03 02:48:04;;;;;;;20.08;10.43;;;;;;;14.95;78.97;98323.44;5111686;28;20090;-79
2021/07/03 02:50:29;;;;;;;14.00;8.85;;;;;;;14.96;78.78;98330.59;5112406;28;20550;-79
2021/07/03 02:52:54;;;;;;;24.02;11.80;;;;;;;14.95;78.97;98330.91;5093688;28;20024;-81
2021/07/03 02:55:20;;;;;;;18.88;10.57;;;;;;;14.96;78.65;98333.34;5112455;28;20433;-81
2021/07/03 02:57:45;;;;;;;19.50;10.05;;;;;;;14.94;78.47;98330.09;5093967;28;20518;-79
2021/07/03 03:00:13;;;;;;;16.67;10.20;;;;;;;14.94;77.98;98330.09;5111804;28;20023;-79
2021/07/03 03:02:39;;;;;;;17.33;10.32;;;;;;;14.98;78.12;98331.06;5112127;28;20027;-79
2021/07/03 03:05:06;;;;;;;16.40;10.18;;;;;;;15.03;78.15;98336.44;5111983;28;20383;-79
2021/07/03 03:07:33;;;;;;;21.02;11.30;;;;;;;15.08;77.85;98340.94;5112149;28;20032;-80
2021/07/03 03:09:58;;;;;;;20.00;10.40;;;;;;;15.06;78.51;98339.69;5111582;28;20506;-80
2021/07/03 03:12:24;;;;;;;20.95;10.93;;;;;;;15.08;78.04;98346.47;5093388;28;20032;-79
2021/07/03 03:14:49;;;;;;;19.20;11.02;;;;;;;15.09;78.18;98348.09;5112097;28;20083;-81
2021/07/03 03:17:14;;;;;;;21.10;11.35;;;;;;;15.16;77.69;98353.09;5093824;28;20051;-81
2021/07/03 03:19:40;;;;;;;20.88;11.18;;;;;;;15.21;78.09;98349.38;5112344;28;20023;-81
2021/07/03 03:22:05;;;;;;;20.85;11.98;;;;;;;15.21;77.73;98352.94;5112489;28;20039;-80
2021/07/03 03:24:30;;;;;;;19.27;11.15;;;;;;;15.25;77.46;98350.34;5096372;28;20031;-79
2021/07/03 03:26:56;;;;;;;18.80;10.73;;;;;;;15.22;77.31;98343.50;5115683;28;20376;-81
2021/07/03 03:29:21;;;;;;;22.40;12.95;;;;;;;15.22;78.06;98345.47;5115858;28;20074;-80
2021/07/03 03:31:46;;;;;;;22.70;11.98;;;;;;;15.24;77.86;98332.16;5115824;28;20035;-80
2021/07/03 03:34:12;;;;;;;20.17;10.90;;;;;;;15.31;77.89;98343.47;5106240;28;20031;-81
2021/07/03 03:36:37;;;;;;;20.42;11.15;;;;;;;15.37;77.54;98344.91;5108171;28;20486;-81
2021/07/03 03:39:03;;;;;;;20.95;10.85;;;;;;;15.39;77.51;98339.88;5115230;28;20063;-81
2021/07/03 03:41:28;;;;;;;23.80;12.10;;;;;;;15.40;77.31;98347.00;5115274;28;20027;-80
2021/07/03 03:43:54;;;;;;;21.05;12.00;;;;;;;15.43;77.47;98345.56;5114921;28;20023;-81
2021/07/03 03:46:19;;;;;;;19.50;11.75;;;;;;;15.47;77.37;98343.75;5115518;28;20612;-80
2021/07/03 03:48:45;;;;;;;20.80;11.77;;;;;;;15.56;78.42;98338.97;5115647;28;20023;-79
2021/07/03 03:51:10;;;;;;;24.88;13.05;;;;;;;15.58;77.84;98339.47;5115623;28;20114;-82
2021/07/03 03:53:35;;;;;;;17.67;10.70;;;;;;;15.60;77.53;98337.16;5115311;28;20027;-80
2021/07/03 03:56:01;;;;;;;23.27;11.38;;;;;;;15.62;77.75;98339.63;5115302;28;20114;-79
2021/07/03 03:58:26;;;;;;;23.20;12.40;;;;;;;15.61;77.74;98329.69;5115416;28;20574;-78
2021/07/03 04:00:51;;;;;;;21.73;11.43;;;;;;;15.62;77.81;98334.09;5114844;28;20019;-80
2021/07/03 04:03:17;;;;;;;22.50;11.90;;;;;;;15.63;78.03;98336.50;5099575;28;20024;-79
2021/07/03 04:05:42;;;;;;;26.98;12.85;;;;;;;15.65;77.70;98336.19;5103472;28;20043;-80
2021/07/03 04:08:08;;;;;;;23.50;12.95;;;;;;;15.70;77.74;98337.94;5114466;28;20034;-80
2021/07/03 04:10:33;;;;;;;28.25;13.18;;;;;;;15.72;77.59;98339.22;5114652;28;20138;-81
2021/07/03 04:12:59;;;;;;;23.67;12.05;;;;;;;15.70;77.84;98338.75;5114567;28;20035;-80
2021/07/03 04:15:24;;;;;;;20.85;11.57;;;;;;;15.68;77.24;98343.00;5114811;28;20031;-79
2021/07/03 04:17:50;;;;;;;27.55;13.50;;;;;;;15.67;77.34;98341.38;5114764;28;20035;-80
2021/07/03 04:20:15;;;;;;;22.90;12.93;;;;;;;15.68;77.62;98343.81;5112913;28;20122;-80
2021/07/03 04:22:41;;;;;;;22.73;13.32;;;;;;;15.74;77.80;98342.47;5114939;28;20070;-80
2021/07/03 04:25:11;;;;;;;21.40;12.90;;;;;;;15.77;77.42;98341.00;5114547;28;20063;-76
2021/07/03 04:27:37;;;;;;;22.73;12.52;;;;;;;15.80;77.67;98337.56;5114701;28;20039;-78
2021/07/03 04:30:05;;;;;;;22.73;12.00;;;;;;;15.86;77.38;98338.19;5114638;28;20024;-79
2021/07/03 04:32:30;;;;;;;24.63;14.02;;;;;;;15.88;77.51;98338.69;5097416;28;20388;-77
2021/07/03 04:34:55;;;;;;;20.70;12.27;;;;;;;15.90;77.38;98337.19;5094045;28;20126;-79
2021/07/03 04:37:21;;;;;;;29.92;15.50;;;;;;;15.93;77.74;98336.53;5110112;28;20027;-78
2021/07/03 04:39:46;;;;;;;27.27;15.80;;;;;;;15.94;77.42;98340.13;5114512;28;20067;-78
2021/07/03 04:42:11;;;;;;;24.50;14.75;;;;;;;15.95;77.27;98338.16;5109986;28;20016;-78
2021/07/03 04:44:37;;;;;;;25.73;14.93;;;;;;;15.94;77.34;98337.34;5106199;28;20758;-79
2021/07/03 04:47:02;;;;;;;30.42;16.23;;;;;;;15.93;77.22;98338.50;5113694;28;20023;-79
2021/07/03 04:49:32;;;;;;;29.75;17.45;;;;;;;15.98;77.10;98345.78;5097102;28;20051;-79
2021/07/03 04:51:58;;;;;;;28.98;17.17;;;;;;;16.00;77.13;98347.09;5094326;28;20023;-77
2021/07/03 04:54:23;;;;;;;24.80;13.57;;;;;;;16.04;77.15;98338.91;5094369;28;20027;-79
2021/07/03 04:56:48;;;;;;;30.65;16.75;;;;;;;16.03;76.92;98349.19;5094174;28;20008;-79
2021/07/03 04:59:14;;;;;;;32.45;16.23;;;;;;;16.01;76.89;98348.69;5094178;28;20044;-79
2021/07/03 05:01:39;;;;;;;33.00;18.17;;;;;;;16.03;77.50;98345.59;5110483;28;20020;-79
2021/07/03 05:04:04;;;;;;;30.33;17.85;;;;;;;16.01;76.54;98354.22;5113273;28;20015;-78
2021/07/03 05:06:30;;;;;;;30.77;18.10;;;;;;;16.01;76.91;98350.63;5094876;28;20345;-79
2021/07/03 05:08:55;;;;;;;34.47;18.50;;;;;;;16.09;77.17;98343.44;5113017;28;20040;-80
2021/07/03 05:11:20;;;;;;;30.98;16.17;;;;;;;16.14;77.00;98348.75;5113279;28;20159;-79
2021/07/03 05:13:46;;;;;;;34.92;20.77;;;;;;;16.15;76.56;98350.38;5112942;28;20535;-80
2021/07/03 05:16:11;;;;;;;28.80;17.92;;;;;;;16.15;76.72;98347.63;5094622;28;20008;-80
2021/07/03 05:18:36;;;;;;;33.13;17.48;;;;;;;16.16;76.30;98344.53;5112934;28;20011;-79
2021/07/03 05:21:02;;;;;;;33.33;20.38;;;;;;;16.15;76.68;98347.63;5112761;28;20398;-79
2021/07/03 05:23:27;;;;;;;35.10;21.40;;;;;;;16.17;76.34;98339.78;5112918;28;20133;-80
2021/07/03 05:25:54;;;;;;;32.25;16.83;;;;;;;16.24;76.52;98351.13;5112554;28;20669;-79
2021/07/03 05:28:20;;;;;;;31.05;18.42;;;;;;;16.27;76.72;98342.16;5112838;28;20020;-79
2021/07/03 05:30:48;;;;;;;30.98;19.42;;;;;;;16.29;76.40;98348.16;5094234;28;20069;-79
2021/07/03 05:33:15;;;;;;;30.95;17.23;;;;;;;16.35;76.53;98352.38;5112682;28;20058;-80
2021/07/03 05:35:40;;;;;;;31.02;17.75;;;;;;;16.45;76.46;98348.38;5094176;28;20034;-80
2021/07/03 05:38:06;;;;;;;33.60;17.88;;;;;;;16.46;75.80;98351.97;5096931;28;20020;-78
2021/07/03 05:40:31;;;;;;;32.85;18.75;;;;;;;16.44;75.78;98348.72;5093393;28;20052;-80
2021/07/03 05:42:57;;;;;;;33.08;19.02;;;;;;;16.51;75.82;98358.09;5093251;28;20027;-81
2021/07/03 05:45:23;;;;;;;27.58;17.33;;;;;;;16.54;75.42;98355.81;5093165;28;20469;-79
2021/07/03 05:47:52;;;;;;;32.50;19.35;;;;;;;16.60;75.51;98348.91;5092717;28;20484;-80
2021/07/03 05:50:23;;;;;;;33.90;20.87;;;;;;;16.65;75.28;98357.81;5075062;28;20028;-80
2021/07/03 05:52:50;;;;;;;32.80;20.00;;;;;;;16.69;75.64;98362.66;5093038;28;20615;-80
2021/07/03 05:55:16;;;;;;;27.50;17.48;;;;;;;16.67;75.08;98358.28;5093034;28;20019;-80
2021/07/03 05:57:41;;;;;;;30.73;19.30;;;;;;;16.70;75.05;98355.97;5093128;28;20085;-79
2021/07/03 06:00:10;;;;;;;30.35;19.42;;;;;;;16.73;75.00;98366.38;5093138;28;20020;-80
2021/07/03 06:02:35;;;;;;;32.53;19.58;;;;;;;16.84;75.25;98362.06;5093049;28;20031;-80
2021/07/03 06:05:00;;;;;;;26.58;17.67;;;;;;;16.92;75.01;98365.88;5074700;28;20036;-81
2021/07/03 06:07:26;;;;;;;26.17;15.43;;;;;;;17.00;74.61;98365.03;5092833;28;20024;-81
2021/07/03 06:09:52;;;;;;;25.77;17.40;;;;;;;17.05;74.55;98370.34;5092775;28;20476;-82
2021/07/03 06:12:18;;;;;;;31.52;17.83;;;;;;;17.11;74.32;98362.63;5092841;28;20482;-81
2021/07/03 06:14:43;;;;;;;26.48;17.20;;;;;;;17.18;74.00;98370.38;5092852;28;20027;-81
2021/07/03 06:17:13;;;;;;;27.92;17.27;;;;;;;17.23;73.82;98365.44;5092741;28;20436;-80
2021/07/03 06:19:39;;;;;;;26.17;17.42;;;;;;;17.29;73.62;98366.00;5074661;28;20024;-79
2021/07/03 06:22:05;;;;;;;28.30;18.85;;;;;;;17.37;73.10;98358.72;5092671;28;20028;-79
2021/07/03 06:24:30;;;;;;;27.20;16.40;;;;;;;17.47;72.97;98360.28;5092557;28;20361;-81
2021/07/03 06:26:56;;;;;;;29.15;17.48;;;;;;;17.62;72.96;98367.09;5092772;28;20024;-80
2021/07/03 06:29:21;;;;;;;27.05;17.52;;;;;;;17.75;73.26;98359.59;5092667;28;20028;-81
2021/07/03 06:31:46;;;;;;;28.75;17.00;;;;;;;17.76;72.99;98377.84;5092654;28;20021;-81
2021/07/03 06:34:12;;;;;;;26.67;18.92;;;;;;;17.66;72.77;98360.50;5074563;28;20472;-81
2021/07/03 06:36:37;;;;;;;27.02;17.58;;;;;;;17.62;72.38;98373.44;5074368;28;20486;-81
2021/07/03 06:39:04;;;;;;;23.08;15.63;;;;;;;17.53;72.47;98368.00;5092427;28;20503;-79
2021/07/03 06:41:29;;;;;;;25.73;16.33;;;;;;;17.45;72.27;98365.34;5092612;28;20032;-80
2021/07/03 06:43:54;;;;;;;21.73;15.15;;;;;;;17.44;72.54;98367.28;5093197;28;20024;-80
2021/07/03 06:46:20;;;;;;;23.20;15.98;;;;;;;17.47;72.38;98374.13;5111722;28;20018;-80
2021/07/03 06:48:45;;;;;;;25.52;14.85;;;;;;;17.52;72.44;98371.16;5104466;28;20027;-81
2021/07/03 06:51:10;;;;;;;19.75;12.75;;;;;;;17.54;72.39;98380.72;5094798;28;20410;-80
2021/07/03 06:53:36;;;;;;;24.25;15.45;;;;;;;17.53;71.88;98379.09;5092422;28;20515;-79
2021/07/03 06:56:02;;;;;;;19.58;13.18;;;;;;;17.54;71.72;98383.50;5100027;28;20049;-81
2021/07/03 06:58:27;;;;;;;22.13;14.57;;;;;;;17.51;71.70;98381.41;5081997;28;20051;-79
2021/07/03 07:00:52;;;;;;;22.30;14.50;;;;;;;17.52;71.50;98385.81;5081569;28;20020;-79
2021/07/03 07:03:17;;;;;;;22.08;15.00;;;;;;;17.54;71.51;98386.25;5096326;28;20177;-79
2021/07/03 07:05:43;;;;;;;21.30;14.82;;;;;;;17.59;71.63;98387.19;5096315;28;20456;-80
2021/07/03 07:08:08;;;;;;;21.98;14.23;;;;;;;17.64;70.84;98398.06;5078135;28;20536;-80
2021/07/03 07:10:33;;;;;;;23.10;15.95;;;;;;;17.65;71.10;98388.59;5096050;28;20035;-82
2021/07/03 07:13:07;;;;;;;24.65;16.15;;;;;;;17.77;71.33;98385.81;5096188;28;20093;-80
2021/07/03 07:15:33;;;;;;;25.10;15.23;;;;;;;18.00;71.29;98382.63;5096260;28;20472;-80
2021/07/03 07:17:59;;;;;;;23.60;14.85;;;;;;;18.27;70.97;98380.25;5096042;28;20384;-80
2021/07/03 07:20:24;;;;;;;24.58;15.70;;;;;;;18.50;70.31;98377.78;5095945;28;20028;-80
2021/07/03 07:22:49;;;;;;;23.33;15.57;;;;;;;18.62;70.51;98379.72;5095774;28;20032;-83
2021/07/03 07:25:15;;;;;;;21.20;13.80;;;;;;;18.72;70.25;98383.97;5095596;28;20446;-81
2021/07/03 07:27:40;;;;;;;20.55;13.77;;;;;;;18.72;70.16;98370.88;5095656;28;20051;-82
2021/07/03 07:30:06;;;;;;;27.27;15.55;;;;;;;18.74;69.74;98382.44;5077441;28;20388;-82
2021/07/03 07:32:32;;;;;;;24.10;15.45;;;;;;;18.72;69.13;98370.88;5077315;28;20081;-80
2021/07/03 07:34:58;;;;;;;21.17;13.98;;;;;;;18.72;69.02;98383.97;5077372;28;20021;-80
2021/07/03 07:37:24;;;;;;;23.88;15.20;;;;;;;18.68;68.71;98383.84;5097593;28;20016;-82
2021/07/03 07:39:49;;;;;;;23.25;15.68;;;;;;;18.73;68.59;98380.03;5114649;28;20382;-81
2021/07/03 07:42:15;;;;;;;23.50;14.68;;;;;;;18.75;67.83;98380.47;5114415;28;20043;-81
2021/07/03 07:44:40;;;;;;;22.05;13.02;;;;;;;18.78;67.85;98376.19;5114356;28;20030;-80
2021/07/03 07:47:06;;;;;;;19.65;12.63;;;;;;;18.83;68.08;98384.28;5114585;28;20103;-79
2021/07/03 07:49:31;;;;;;;21.73;14.48;;;;;;;18.90;67.53;98374.16;5114325;28;20754;-81
2021/07/03 07:51:58;;;;;;;22.17;15.02;;;;;;;18.96;66.96;98376.72;5114219;28;20023;-81
2021/07/03 07:54:23;;;;;;;17.65;10.98;;;;;;;18.96;67.21;98373.94;5114528;28;20043;-84
2021/07/03 07:56:48;;;;;;;21.75;14.77;;;;;;;19.03;66.79;98374.94;5114361;28;20050;-83
2021/07/03 07:59:14;;;;;;;22.20;14.75;;;;;;;19.14;66.76;98380.00;5114433;28;20039;-82
2021/07/03 08:01:39;;;;;;;18.30;13.30;;;;;;;19.20;67.27;98378.56;5114573;28;20538;-80
2021/07/03 08:04:04;;;;;;;19.95;13.38;;;;;;;19.28;66.95;98376.78;5113712;28;20138;-81
2021/07/03 08:06:30;;;;;;;17.83;13.32;;;;;;;19.38;66.60;98369.88;5114206;28;20107;-81
2021/07/03 08:08:55;;;;;;;18.33;11.98;;;;;;;19.46;66.24;98371.69;5114741;28;20047;-80
2021/07/03 08:11:22;;;;;;;19.65;12.98;;;;;;;19.50;66.56;98361.47;5115402;28;20027;-80
2021/07/03 08:13:48;;;;;;;22.13;13.00;;;;;;;19.62;65.71;98366.94;5115367;28;20088;-81
2021/07/03 08:16:13;;;;;;;18.20;11.15;;;;;;;19.69;64.99;98359.94;5115506;28;20531;-80
2021/07/03 08:18:38;;;;;;;15.95;11.27;;;;;;;19.73;64.43;98366.41;5096947;28;20027;-81
2021/07/03 08:21:04;;;;;;;18.33;12.25;;;;;;;19.84;64.77;98370.25;5115232;28;20055;-82
2021/07/03 08:23:29;;;;;;;20.23;12.43;;;;;;;19.96;64.94;98361.03;5115176;28;20464;-80
2021/07/03 08:25:55;;;;;;;15.80;10.68;;;;;;;20.09;64.48;98364.50;5113641;28;20035;-81
2021/07/03 08:28:20;;;;;;;17.85;10.18;;;;;;;20.17;62.85;98371.84;5113817;28;20016;-81
2021/07/03 08:30:45;;;;;;;16.42;10.88;;;;;;;20.25;63.54;98364.47;5113634;28;20023;-82
2021/07/03 08:33:11;;;;;;;13.88;10.23;;;;;;;20.36;63.89;98350.78;5113223;28;20026;-81
2021/07/03 08:35:36;;;;;;;16.13;10.20;;;;;;;20.55;62.16;98351.97;5113648;28;20024;-78
2021/07/03 08:38:02;;;;;;;17.27;10.90;;;;;;;20.66;62.53;98342.66;5098225;28;20108;-79
2021/07/03 08:40:30;;;;;;;13.05;8.43;;;;;;;20.76;62.96;98363.53;5094263;28;20464;-78
2021/07/03 08:42:55;;;;;;;15.48;10.13;;;;;;;20.80;60.50;98372.81;5094163;28;20076;-78
2021/07/03 08:45:20;;;;;;;13.27;9.00;;;;;;;20.90;60.48;98362.25;5094256;28;20024;-78
2021/07/03 08:47:46;;;;;;;14.13;10.40;;;;;;;20.97;60.25;98362.41;5094271;28;20069;-81
2021/07/03 08:50:14;;;;;;;15.23;10.05;;;;;;;21.00;60.04;98364.44;5094094;28;20031;-79
2021/07/03 08:52:40;;;;;;;18.58;10.30;;;;;;;20.96;59.81;98360.78;5094613;28;20368;-80
2021/07/03 08:55:05;;;;;;;15.68;8.23;;;;;;;20.94;58.91;98361.13;5094318;28;20012;-78
2021/07/03 08:57:35;;;;;;;28.08;12.07;;;;;;;21.01;60.11;98360.47;5094024;28;20020;-78
2021/07/03 09:00:00;;;;;;;19.45;10.60;;;;;;;21.22;58.53;98359.28;5094207;28;20019;-80
2021/07/03 09:02:37;;;;;;;19.17;11.30;;;;;;;21.33;58.82;98351.91;5094287;28;20020;-79
2021/07/03 09:05:07;;;;;;;18.75;9.00;;;;;;;21.42;58.07;98351.66;5094016;28;20107;-74
2021/07/03 09:07:34;;;;;;;15.45;9.70;;;;;;;21.53;58.74;98349.03;5094359;28;20027;-75
2021/07/03 09:10:01;;;;;;;14.70;9.77;;;;;;;21.66;57.69;98350.50;5093670;28;20105;-75
2021/07/03 09:12:33;;;;;;;17.98;9.02;;;;;;;21.79;56.58;98350.31;5093914;28;20054;-72
2021/07/03 09:15:13;;;;;;;14.30;8.07;;;;;;;21.87;56.04;98343.63;5093893;28;20073;-74
2021/07/03 09:17:50;;;;;;;12.48;8.02;;;;;;;21.81;55.41;98347.91;5093597;28;20051;-75
2021/07/03 09:20:38;;;;;;;15.07;9.25;;;;;;;21.75;55.91;98352.22;5075770;28;20507;-75
2021/07/03 09:23:11;;;;;;;13.40;8.07;;;;;;;21.81;56.40;98342.34;5093028;28;20016;-74
2021/07/03 09:25:40;;;;;;;12.48;7.85;;;;;;;21.94;54.88;98340.97;5093198;28;20531;-75
2021/07/03 09:28:11;;;;;;;14.63;8.15;;;;;;;21.88;54.12;98342.44;5106466;28;20027;-74
2021/07/03 09:30:37;;;;;;;11.32;6.90;;;;;;;21.83;53.11;98345.56;5113678;28;20039;-73
2021/07/03 09:33:03;;;;;;;11.18;8.05;;;;;;;21.73;53.64;98338.63;5113597;28;20098;-73
2021/07/03 09:35:28;;;;;;;12.10;7.70;;;;;;;21.63;54.39;98330.88;5113561;28;20023;-74
2021/07/03 09:38:08;;;;;;;14.23;8.70;;;;;;;21.63;54.88;98326.13;5111285;28;20016;-74
2021/07/03 09:40:37;;;;;;;13.60;8.35;;;;;;;21.70;55.35;98331.00;5093515;28;20036;-74
2021/07/03 09:43:05;;;;;;;12.60;8.48;;;;;;;21.84;54.65;98324.84;5093512;28;20027;-76
2021/07/03 09:45:30;;;;;;;11.85;8.48;;;;;;;22.01;54.95;98313.16;5093517;28;20510;-75
2021/07/03 09:48:10;;;;;;;16.65;8.57;;;;;;;22.22;55.00;98314.63;5108328;28;20030;-75
2021/07/03 09:50:38;;;;;;;13.05;7.38;;;;;;;22.39;53.19;98318.03;5101671;28;20030;-75
2021/07/03 09:53:04;;;;;;;22.67;11.93;;;;;;;22.44;51.36;98314.94;5104794;28;20069;-74
2021/07/03 09:55:29;;;;;;;23.00;11.02;;;;;;;22.36;52.65;98319.63;5109582;28;20023;-82
2021/07/03 09:57:56;;;;;;;15.82;9.15;;;;;;;22.35;52.35;98318.00;5112455;28;20540;-80
2021/07/03 10:00:21;;;;;;;13.18;8.57;;;;;;;22.50;52.53;98318.19;5076357;28;20395;-81
2021/07/03 10:02:47;;;;;;;15.20;9.48;;;;;;;22.59;52.72;98307.53;5111957;28;20098;-81
2021/07/03 10:05:12;;;;;;;17.25;8.88;;;;;;;22.57;52.75;98309.91;5111776;28;20027;-82
2021/07/03 10:07:44;;;;;;;12.55;8.70;;;;;;;22.48;52.28;98313.00;5111934;28;20027;-81
2021/07/03 10:10:23;;;;;;;14.45;8.25;;;;;;;22.31;52.84;98315.13;5094035;28;20445;-81
2021/07/03 10:12:58;;;;;;;11.68;8.32;;;;;;;22.12;53.37;98324.47;5103930;28;20074;-83
2021/07/03 10:15:29;;;;;;;11.13;8.02;;;;;;;21.84;53.31;98316.47;5110610;28;20024;-80
2021/07/03 10:18:07;;;;;;;17.30;9.55;;;;;;;21.54;53.98;98311.59;5092381;28;20020;-81
2021/07/03 10:20:33;;;;;;;14.73;9.27;;;;;;;21.37;54.53;98313.72;5111246;28;20513;-81
2021/07/03 10:22:59;;;;;;;15.30;9.52;;;;;;;21.25;54.87;98311.13;5111545;28;20019;-82
2021/07/03 10:25:38;;;;;;;18.63;8.45;;;;;;;21.24;55.22;98313.09;5112033;28;20383;-83
2021/07/03 10:28:07;;;;;;;15.45;8.95;;;;;;;21.22;55.69;98312.66;5101633;28;20024;-83
2021/07/03 10:30:34;;;;;;;14.13;8.27;;;;;;;21.20;56.00;98305.84;5112327;28;20032;-83
2021/07/03 10:33:21;;;;;;;17.92;8.38;;;;;;;21.30;55.70;98299.66;5114771;28;20019;-82
2021/07/03 10:35:52;;;;;;;12.73;8.18;;;;;;;21.38;56.38;98295.00;5116223;28;20062;-82
2021/07/03 10:38:30;;;;;;;22.17;11.48;;;;;;;21.52;56.47;98289.66;5097935;28;20690;-82
2021/07/03 10:41:20;;;;;;;15.27;8.98;;;;;;;21.70;56.15;98289.97;5114815;28;20023;-82
2021/07/03 10:43:48;;;;;;;13.63;8.75;;;;;;;21.91;56.21;98279.50;5097655;28;20043;-81
2021/07/03 10:46:38;;;;;;;12.02;8.80;;;;;;;22.22;55.60;98281.09;5098119;28;20033;-81
2021/07/03 10:49:16;;;;;;;18.90;10.55;;;;;;;22.51;55.16;98283.47;5092742;28;20038;-81
2021/07/03 10:51:46;;;;;;;14.35;9.18;;;;;;;22.78;53.98;98269.41;5115557;28;20030;-83
2021/07/03 10:54:33;;;;;;;15.10;8.70;;;;;;;23.12;54.33;98274.94;5111366;28;20032;-80
2021/07/03 10:57:01;;;;;;;13.15;9.20;;;;;;;23.37;53.10;98272.41;5114955;28;20028;-82
2021/07/03 10:59:28;;;;;;;12.43;7.10;;;;;;;23.41;51.93;98269.63;5115691;28;20032;-80
2021/07/03 11:02:06;;;;;;;13.15;6.22;;;;;;;23.27;48.37;98271.09;5115904;28;20038;-80
2021/07/03 11:04:44;;;;;;;8.32;5.50;;;;;;;23.26;48.53;98274.28;5097786;28;20028;-81
2021/07/03 11:07:12;;;;;;;9.32;5.80;;;;;;;23.24;46.84;98271.88;5115542;28;20442;-79
2021/07/03 11:09:38;;;;;;;9.18;5.85;;;;;;;23.30;46.85;98272.34;5085274;28;20048;-77
2021/07/03 11:12:16;;;;;;;7.32;4.63;;;;;;;23.34;48.00;98271.16;5100792;28;20437;-79
2021/07/03 11:14:52;;;;;;;8.48;5.40;;;;;;;23.41;47.97;98269.63;5097008;28;20030;-82
2021/07/03 11:17:20;;;;;;;9.45;6.28;;;;;;;23.49;46.61;98265.69;5107018;28;20035;-82
2021/07/03 11:19:50;;;;;;;14.10;7.07;;;;;;;23.49;47.21;98274.09;5085813;28;20284;-78